Terminal Aerodrome Forecast
Issued by NWS

Home | Current Version | Previous Version | Text Only | Print | Product List | Glossary On
Versions: 1 2 3 4 5 6 7 8 9 10 11
000
FTUS46 KSEW 272300
TAFHQM
TAF
KHQM 272320Z 2800/2824 25013G22KT P6SM -SHRA SCT020 BKN040 OVC070
     FM281000 27009KT P6SM OVC020=

USA.gov is the U.S. government's official web portal to all federal, state and local government web resources and services.